Prim, Arkansas
Current Conditions -  °F | °C
As of 10:15 AM on Thursday 18 Dec 2014 (Local Time) from KCCA Reporting Station
Haze Haze  
Wind Chill: 37°   Ceiling: 800
Heat Index: 37°   Visibility: 6mi
Dew Point: 36°   Wind: 0mph
Humidity: 93%   Direction: NA
Pressure: 30.27"   Gusts: NA
Location:  35.69°N, 92.11°W
Report Text: KCCA 181615Z AUTO 00000KT 6SM BR OVC008 03/02 A3027 RMK AO2
Loading
Personal Weather Stations






























Interactive Weather Map New forecast layout! Learn more

10-Day Weather Forecast

Advertisements
Track Severe Weather on mobile